Time;durP1;ratioP1;P1;durP2;ratioP2;P2;SDS_P1;SDS_P2;PMS_P1;PMS_P2;Temp;Humidity;BMP_temperature;BMP_pressure;BME280_temperature;BME280_humidity;BME280_pressure;Samples;Min_cycle;Max_cycle;Signal;HPM_P1;HPM_P2
2022/03/08 00:00:46;;;;;;;30.40;14.60;;;;;;;-1.71;77.60;99240.19;109236;1274;22449;-61
2022/03/08 00:03:14;;;;;;;27.10;15.20;;;;;;;-1.71;77.69;99236.58;109189;1273;137796;-61
2022/03/08 00:05:43;;;;;;;29.30;16.00;;;;;;;-1.72;77.60;99233.06;109252;1276;23146;-61
2022/03/08 00:08:12;;;;;;;34.00;17.90;;;;;;;-1.77;77.67;99228.83;109121;1275;138550;-61
2022/03/08 00:10:41;;;;;;;27.80;18.60;;;;;;;-1.83;77.23;99235.69;109338;1275;22812;-61
2022/03/08 00:13:10;;;;;;;33.80;17.30;;;;;;;-1.89;77.18;99230.73;109282;1274;22469;-61
2022/03/08 00:15:38;;;;;;;26.80;15.70;;;;;;;-1.93;77.17;99232.52;109158;1275;138787;-61
2022/03/08 00:18:06;;;;;;;31.00;16.30;;;;;;;-1.97;77.10;99225.76;109285;1275;23242;-62
2022/03/08 00:20:34;;;;;;;29.80;16.90;;;;;;;-2.04;77.13;99227.08;109146;1274;138541;-61
2022/03/08 00:23:03;;;;;;;30.20;16.10;;;;;;;-2.13;76.89;99227.48;109320;1273;23780;-62
2022/03/08 00:25:31;;;;;;;27.30;15.80;;;;;;;-2.24;76.72;99227.94;109252;1275;22412;-61
2022/03/08 00:27:59;;;;;;;28.60;17.20;;;;;;;-2.31;76.73;99229.34;109196;1274;138850;-61
2022/03/08 00:30:29;;;;;;;28.10;16.80;;;;;;;-2.42;76.51;99226.63;109286;1274;23404;-62
2022/03/08 00:32:57;;;;;;;32.40;15.80;;;;;;;-2.52;76.59;99227.15;109157;1274;138024;-61
2022/03/08 00:35:25;;;;;;;28.60;15.40;;;;;;;-2.58;76.81;99225.33;109300;1274;23403;-61
2022/03/08 00:37:55;;;;;;;27.90;14.10;;;;;;;-2.63;76.82;99216.60;109278;1274;22477;-62
2022/03/08 00:40:23;;;;;;;25.70;14.70;;;;;;;-2.67;76.94;99214.59;109103;1276;139802;-62
2022/03/08 00:42:52;;;;;;;35.80;15.90;;;;;;;-2.69;77.22;99213.95;109305;1276;22399;-61
2022/03/08 00:45:20;;;;;;;36.80;18.30;;;;;;;-2.71;77.44;99213.64;109013;1274;139225;-61
2022/03/08 00:47:48;;;;;;;44.80;18.10;;;;;;;-2.66;77.85;99217.85;109260;1274;22401;-62
2022/03/08 00:50:19;;;;;;;45.50;20.20;;;;;;;-2.64;78.01;99219.90;109133;1274;138801;-62
2022/03/08 00:52:48;;;;;;;45.20;20.80;;;;;;;-2.65;78.16;99217.14;109273;1276;23517;-62
2022/03/08 00:55:18;;;;;;;42.30;19.80;;;;;;;-2.64;78.39;99219.01;109206;1274;22465;-62
2022/03/08 00:57:47;;;;;;;42.10;20.00;;;;;;;-2.64;78.42;99217.07;109170;1276;139065;-62
2022/03/08 01:00:17;;;;;;;33.60;16.90;;;;;;;-2.65;78.49;99221.48;109293;1275;22450;-62
2022/03/08 01:02:46;;;;;;;33.80;17.20;;;;;;;-2.64;78.80;99222.58;109195;1274;140339;-62
2022/03/08 01:05:14;;;;;;;33.70;17.30;;;;;;;-2.61;79.14;99220.13;109120;1277;23372;-62
2022/03/08 01:07:42;;;;;;;38.20;17.80;;;;;;;-2.60;79.18;99222.67;109312;1274;22431;-62
2022/03/08 01:10:31;;;;;;;36.10;17.00;;;;;;;-2.60;79.27;99221.90;109156;1276;137996;-62
2022/03/08 01:12:59;;;;;;;30.40;16.30;;;;;;;-2.58;79.58;99220.23;109335;1276;22470;-62
2022/03/08 01:15:27;;;;;;;38.20;16.00;;;;;;;-2.56;79.64;99219.61;109168;1275;139550;-62
2022/03/08 01:17:56;;;;;;;28.70;14.70;;;;;;;-2.54;79.80;99221.53;109288;1275;22448;-62
2022/03/08 01:20:24;;;;;;;26.80;13.40;;;;;;;-2.50;80.11;99214.91;109147;1276;139255;-62
2022/03/08 01:22:54;;;;;;;33.20;15.20;;;;;;;-2.44;80.36;99212.01;109281;1275;22497;-62
2022/03/08 01:25:22;;;;;;;28.30;14.60;;;;;;;-2.37;80.67;99209.39;109233;1274;22411;-62
2022/03/08 01:27:53;;;;;;;30.80;15.00;;;;;;;-2.30;80.79;99197.22;109169;1276;138894;-62
2022/03/08 01:30:22;;;;;;;28.40;14.50;;;;;;;-2.25;80.99;99195.98;109091;1276;22468;-62
2022/03/08 01:32:51;;;;;;;32.20;16.20;;;;;;;-2.20;81.05;99190.07;109158;1276;138365;-62
2022/03/08 01:35:19;;;;;;;42.80;18.50;;;;;;;-2.16;81.08;99191.67;109134;1277;22263;-62
2022/03/08 01:37:49;;;;;;;44.50;18.90;;;;;;;-2.10;81.32;99193.52;109131;1276;22414;-62
2022/03/08 01:40:17;;;;;;;45.80;19.10;;;;;;;-2.04;81.53;99193.77;109082;1274;138014;-62
2022/03/08 01:42:48;;;;;;;56.20;20.80;;;;;;;-1.98;81.42;99192.69;109277;1275;22833;-63
2022/03/08 01:45:22;;;;;;;46.20;21.50;;;;;;;-1.91;81.61;99193.57;109153;1276;137852;-62
2022/03/08 01:47:51;;;;;;;53.70;23.70;;;;;;;-1.88;81.64;99192.58;109086;1276;22538;-63
2022/03/08 01:50:19;;;;;;;51.30;22.70;;;;;;;-1.85;81.48;99192.07;109222;1276;138539;-61
2022/03/08 01:52:47;;;;;;;49.50;20.20;;;;;;;-1.82;81.43;99190.06;109246;1274;22480;-62
2022/03/08 01:55:16;;;;;;;48.40;19.10;;;;;;;-1.80;81.60;99191.27;109125;1276;22522;-62
2022/03/08 01:57:45;;;;;;;45.90;18.90;;;;;;;-1.78;81.55;99191.55;109264;1275;137562;-62
2022/03/08 02:00:15;;;;;;;53.10;21.90;;;;;;;-1.77;81.55;99189.85;109292;1274;22444;-62
2022/03/08 02:02:43;;;;;;;39.30;17.70;;;;;;;-1.76;81.51;99187.96;109170;1275;139363;-63
2022/03/08 02:05:12;;;;;;;37.60;17.90;;;;;;;-1.76;81.38;99189.20;109154;1276;22419;-63
2022/03/08 02:07:41;;;;;;;40.10;17.60;;;;;;;-1.76;81.41;99191.21;109262;1276;22260;-61
2022/03/08 02:10:09;;;;;;;39.20;17.70;;;;;;;-1.75;81.59;99194.06;108999;1276;139591;-62
2022/03/08 02:12:37;;;;;;;34.50;15.30;;;;;;;-1.73;81.49;99192.42;109167;1277;22554;-60
2022/03/08 02:15:15;;;;;;;36.10;16.30;;;;;;;-1.72;81.44;99188.85;108955;1277;138302;-61
2022/03/08 02:17:44;;;;;;;35.60;14.90;;;;;;;-1.71;81.34;99189.58;109083;1276;22467;-62
2022/03/08 02:20:12;;;;;;;32.40;16.90;;;;;;;-1.70;81.31;99187.20;109045;1276;138842;-62
2022/03/08 02:22:44;;;;;;;33.10;15.90;;;;;;;-1.70;81.29;99190.93;109155;1275;22253;-62
2022/03/08 02:25:12;;;;;;;36.30;16.70;;;;;;;-1.68;81.46;99192.94;109247;1276;22491;-62
2022/03/08 02:27:42;;;;;;;35.50;18.50;;;;;;;-1.65;81.66;99196.55;109155;1274;137672;-62
2022/03/08 02:30:11;;;;;;;38.50;18.80;;;;;;;-1.62;81.83;99196.02;109120;1276;22522;-62
2022/03/08 02:32:42;;;;;;;42.10;21.60;;;;;;;-1.60;81.69;99203.37;109151;1276;137759;-62
2022/03/08 02:35:13;;;;;;;50.60;24.00;;;;;;;-1.58;81.80;99203.00;109268;1275;22524;-63
2022/03/08 02:37:43;;;;;;;49.30;25.80;;;;;;;-1.57;82.12;99203.94;109181;1276;22438;-62
2022/03/08 02:40:12;;;;;;;54.30;29.00;;;;;;;-1.57;82.28;99204.10;109152;1274;138356;-62
2022/03/08 02:42:40;;;;;;;55.40;27.50;;;;;;;-1.58;82.45;99201.44;109291;1274;23118;-62
2022/03/08 02:45:09;;;;;;;51.80;26.30;;;;;;;-1.57;82.69;99197.00;109164;1276;139889;-61
2022/03/08 02:47:37;;;;;;;56.50;26.90;;;;;;;-1.55;83.05;99199.41;109290;1276;23406;-62
2022/03/08 02:50:08;;;;;;;57.70;28.50;;;;;;;-1.53;83.28;99196.61;109254;1275;23518;-62
2022/03/08 02:52:37;;;;;;;47.10;25.90;;;;;;;-1.51;83.33;99192.78;109033;1274;139285;-62
2022/03/08 02:55:06;;;;;;;59.30;29.30;;;;;;;-1.49;83.60;99190.29;109319;1275;22449;-62
2022/03/08 02:57:35;;;;;;;51.90;28.40;;;;;;;-1.47;83.65;99190.73;109131;1275;140120;-62
2022/03/08 03:00:04;;;;;;;58.90;29.90;;;;;;;-1.45;83.74;99191.44;109270;1275;22511;-62
2022/03/08 03:02:35;;;;;;;59.90;29.50;;;;;;;-1.44;83.97;99191.20;109160;1276;138493;-62
2022/03/08 03:05:04;;;;;;;57.90;28.40;;;;;;;-1.40;83.87;99191.11;109280;1274;22419;-62
2022/03/08 03:07:32;;;;;;;54.60;31.60;;;;;;;-1.36;83.96;99190.87;109259;1276;23216;-62
2022/03/08 03:10:01;;;;;;;55.00;28.00;;;;;;;-1.33;84.03;99192.35;109161;1276;139004;-62
2022/03/08 03:12:29;;;;;;;56.10;27.20;;;;;;;-1.30;83.92;99199.49;109332;1274;22251;-62
2022/03/08 03:14:57;;;;;;;64.60;33.00;;;;;;;-1.30;83.95;99200.19;109160;1275;138271;-61
2022/03/08 03:17:25;;;;;;;58.30;33.20;;;;;;;-1.31;83.79;99195.54;109252;1275;22573;-61
2022/03/08 03:19:53;;;;;;;61.60;34.00;;;;;;;-1.32;83.59;99190.52;109302;1274;23024;-62
2022/03/08 03:22:21;;;;;;;52.10;31.60;;;;;;;-1.32;83.67;99189.20;109227;1276;138282;-62
2022/03/08 03:24:50;;;;;;;55.40;30.20;;;;;;;-1.30;83.82;99188.64;109265;1275;23442;-62
2022/03/08 03:27:18;;;;;;;51.10;29.50;;;;;;;-1.32;83.83;99183.66;109158;1274;138311;-62
2022/03/08 03:29:47;;;;;;;49.60;25.20;;;;;;;-1.27;83.83;99193.25;109231;1276;23091;-62
2022/03/08 03:32:15;;;;;;;44.60;25.00;;;;;;;-1.27;83.72;99194.82;109111;1275;139368;-62
2022/03/08 03:34:44;;;;;;;38.50;22.30;;;;;;;-1.27;83.75;99188.98;109294;1275;23292;-62
2022/03/08 03:37:12;;;;;;;44.90;21.00;;;;;;;-1.26;83.65;99190.55;109211;1276;23480;-63
2022/03/08 03:39:40;;;;;;;36.90;20.60;;;;;;;-1.23;83.70;99192.77;109128;1276;138161;-61
2022/03/08 03:42:08;;;;;;;39.90;21.90;;;;;;;-1.20;83.84;99195.23;109334;1276;23184;-61
2022/03/08 03:44:36;;;;;;;45.20;22.40;;;;;;;-1.17;83.82;99198.93;109154;1276;140266;-61
2022/03/08 03:47:05;;;;;;;50.60;22.80;;;;;;;-1.16;83.70;99199.55;109287;1274;23677;-61
2022/03/08 03:49:33;;;;;;;47.00;22.40;;;;;;;-1.18;83.73;99201.60;109286;1276;22448;-61
2022/03/08 03:52:02;;;;;;;51.20;23.20;;;;;;;-1.22;83.73;99200.44;109182;1274;138703;-61
2022/03/08 03:54:31;;;;;;;49.30;24.10;;;;;;;-1.22;83.64;99201.58;109235;1276;23270;-62
2022/03/08 03:56:59;;;;;;;47.40;22.70;;;;;;;-1.23;83.85;99202.52;109133;1276;138131;-61
2022/03/08 03:59:27;;;;;;;45.80;23.60;;;;;;;-1.25;83.89;99200.45;109283;1276;23621;-61
2022/03/08 04:01:55;;;;;;;38.80;20.80;;;;;;;-1.27;83.81;99200.73;109231;1274;22555;-61
2022/03/08 04:04:23;;;;;;;36.90;21.10;;;;;;;-1.28;84.11;99200.27;109183;1274;137519;-62
2022/03/08 04:06:52;;;;;;;35.30;16.60;;;;;;;-1.28;84.18;99196.74;109270;1276;22547;-62
2022/03/08 04:09:20;;;;;;;25.50;14.70;;;;;;;-1.29;84.05;99195.86;109177;1273;137857;-62
2022/03/08 04:11:50;;;;;;;30.00;12.40;;;;;;;-1.31;83.93;99193.89;109247;1276;22509;-62
2022/03/08 04:14:18;;;;;;;20.10;11.50;;;;;;;-1.33;84.06;99192.02;109168;1276;139058;-61
2022/03/08 04:17:04;;;;;;;21.40;10.50;;;;;;;-1.35;83.74;99194.96;109161;1276;22370;-61
2022/03/08 04:19:32;;;;;;;19.40;10.30;;;;;;;-1.36;83.90;99199.88;109124;1277;22474;-61
2022/03/08 04:22:00;;;;;;;17.10;10.00;;;;;;;-1.37;83.82;99195.55;109059;1276;139811;-62
2022/03/08 04:24:29;;;;;;;15.20;9.30;;;;;;;-1.36;83.84;99198.27;109034;1276;22507;-62
2022/03/08 04:26:58;;;;;;;15.70;7.70;;;;;;;-1.36;83.69;99199.80;109002;1277;139344;-62
2022/03/08 04:29:26;;;;;;;19.10;8.30;;;;;;;-1.37;83.67;99196.99;109173;1276;22541;-62
2022/03/08 04:31:55;;;;;;;15.20;7.90;;;;;;;-1.37;83.76;99198.63;109102;1277;22577;-62
2022/03/08 04:34:23;;;;;;;13.30;7.90;;;;;;;-1.37;83.48;99197.19;108997;1278;139221;-62
2022/03/08 04:36:51;;;;;;;14.20;7.90;;;;;;;-1.41;83.31;99198.21;109142;1277;23338;-62
2022/03/08 04:39:20;;;;;;;14.80;7.50;;;;;;;-1.44;83.31;99201.23;109027;1276;137968;-62
2022/03/08 04:41:48;;;;;;;10.50;6.30;;;;;;;-1.48;83.20;99202.27;109198;1276;22485;-62
2022/03/08 04:44:16;;;;;;;8.30;5.40;;;;;;;-1.51;83.07;99202.46;109106;1275;140282;-61
2022/03/08 04:46:50;;;;;;;10.70;6.30;;;;;;;-1.53;83.01;99208.19;109263;1275;22443;-62
2022/03/08 04:49:19;;;;;;;8.80;5.40;;;;;;;-1.58;83.03;99209.87;108883;1276;480878;-62
2022/03/08 04:52:55;;;;;;;9.90;5.70;;;;;;;-1.61;83.17;99209.21;102186;1303;546081;-61
2022/03/08 04:55:28;;;;;;;10.30;5.60;;;;;;;-1.63;83.35;99213.83;108528;1284;23424;-61
2022/03/08 04:57:57;;;;;;;9.60;5.50;;;;;;;-1.63;83.72;99210.84;108097;1286;136702;-61
2022/03/08 05:00:26;;;;;;;9.90;5.50;;;;;;;-1.60;83.83;99214.48;108032;1287;22625;-61
2022/03/08 05:02:54;;;;;;;14.20;7.40;;;;;;;-1.60;83.90;99216.71;108159;1286;137912;-61
2022/03/08 05:05:22;;;;;;;13.40;7.10;;;;;;;-1.59;84.10;99215.73;108142;1286;213575;-62
2022/03/08 05:07:52;;;;;;;12.70;5.90;;;;;;;-1.58;84.28;99214.70;108476;1284;22446;-62
2022/03/08 05:10:20;;;;;;;13.10;5.90;;;;;;;-1.58;84.27;99219.30;108290;1285;137373;-62
2022/03/08 05:12:48;;;;;;;15.40;9.30;;;;;;;-1.57;84.42;99214.80;108509;1284;22460;-62
2022/03/08 05:15:17;;;;;;;12.30;7.00;;;;;;;-1.55;84.51;99220.05;108288;1285;137824;-62
2022/03/08 05:17:45;;;;;;;8.10;5.60;;;;;;;-1.52;84.76;99219.50;108269;1285;23218;-62
2022/03/08 05:20:15;;;;;;;9.10;5.20;;;;;;;-1.49;84.56;99223.75;108416;1285;22535;-62
2022/03/08 05:22:43;;;;;;;7.80;4.40;;;;;;;-1.46;84.73;99223.41;108244;1285;137560;-62
2022/03/08 05:25:11;;;;;;;7.90;4.60;;;;;;;-1.45;84.55;99225.14;108392;1286;22483;-63
2022/03/08 05:27:40;;;;;;;8.80;4.40;;;;;;;-1.43;84.56;99224.23;108355;1286;137400;-62
2022/03/08 05:30:09;;;;;;;9.60;4.70;;;;;;;-1.42;84.43;99223.27;108382;1285;22479;-62
2022/03/08 05:32:37;;;;;;;7.60;4.20;;;;;;;-1.40;84.58;99219.14;108268;1286;22558;-62
2022/03/08 05:35:07;;;;;;;6.00;3.60;;;;;;;-1.36;84.52;99214.80;108307;1286;137230;-62
2022/03/08 05:37:36;;;;;;;9.60;6.30;;;;;;;-1.29;84.61;99214.17;108399;1285;22451;-62
2022/03/08 05:40:06;;;;;;;6.40;4.10;;;;;;;-1.23;84.47;99217.73;108149;1286;139734;-62
2022/03/08 05:42:34;;;;;;;6.60;4.30;;;;;;;-1.18;84.20;99220.23;108316;1286;23620;-62
2022/03/08 05:45:03;;;;;;;10.50;5.30;;;;;;;-1.13;84.12;99224.04;108303;1285;138966;-62
2022/03/08 05:47:31;;;;;;;6.20;3.80;;;;;;;-1.09;84.01;99230.27;108400;1286;23232;-62
2022/03/08 05:49:59;;;;;;;6.90;4.00;;;;;;;-1.06;84.01;99229.97;108375;1285;22588;-62
2022/03/08 05:52:27;;;;;;;7.20;4.00;;;;;;;-1.03;83.96;99232.21;108197;1286;136890;-63
2022/03/08 05:54:55;;;;;;;8.00;5.10;;;;;;;-1.03;83.80;99232.91;108393;1285;22471;-62
2022/03/08 05:57:24;;;;;;;9.00;4.70;;;;;;;-1.02;83.79;99236.91;108146;1286;138320;-62
2022/03/08 05:59:52;;;;;;;6.20;4.30;;;;;;;-1.01;83.76;99232.44;108444;1285;22471;-62
2022/03/08 06:02:21;;;;;;;10.90;5.20;;;;;;;-0.99;83.77;99233.72;108283;1286;22247;-62
2022/03/08 06:04:49;;;;;;;11.50;6.40;;;;;;;-0.99;83.73;99235.16;108116;1286;138514;-62
2022/03/08 06:07:20;;;;;;;9.50;5.40;;;;;;;-0.99;83.55;99233.92;108369;1286;22526;-62
2022/03/08 06:09:49;;;;;;;10.20;5.80;;;;;;;-0.98;83.64;99230.10;108275;1285;138772;-62
2022/03/08 06:12:18;;;;;;;12.60;6.10;;;;;;;-0.96;85.42;99231.23;108678;1282;22618;-62
2022/03/08 06:14:46;;;;;;;10.20;6.40;;;;;;;-0.95;87.16;99229.55;108448;1283;139194;-61
2022/03/08 06:17:34;;;;;;;10.30;6.70;;;;;;;-0.92;86.72;99230.26;108672;1283;22514;-62
2022/03/08 06:20:03;;;;;;;13.70;7.30;;;;;;;-0.94;85.89;99230.29;108683;1282;22474;-62
2022/03/08 06:22:33;;;;;;;12.60;8.80;;;;;;;-0.95;84.58;99228.09;108774;1280;138414;-62
2022/03/08 06:25:01;;;;;;;11.20;7.00;;;;;;;-0.89;84.59;99233.25;108802;1280;23398;-62
2022/03/08 06:27:30;;;;;;;13.10;7.60;;;;;;;-0.85;84.69;99233.06;109037;1277;137860;-61
2022/03/08 06:29:58;;;;;;;11.70;8.30;;;;;;;-0.81;84.73;99234.55;109080;1276;22590;-61
2022/03/08 06:32:26;;;;;;;15.80;8.50;;;;;;;-0.79;84.26;99238.12;109158;1277;23280;-61
2022/03/08 06:34:54;;;;;;;15.50;8.70;;;;;;;-0.76;84.07;99239.25;108992;1277;138361;-61
2022/03/08 06:37:22;;;;;;;16.00;9.50;;;;;;;-0.76;83.83;99239.63;109129;1277;22462;-61
2022/03/08 06:39:50;;;;;;;13.20;9.50;;;;;;;-0.74;83.92;99247.55;109057;1277;138892;-61
2022/03/08 06:42:18;;;;;;;12.00;8.20;;;;;;;-0.73;84.13;99255.09;109176;1277;23237;-61
2022/03/08 06:44:46;;;;;;;15.10;8.60;;;;;;;-0.73;84.26;99252.86;108988;1277;138054;-60
2022/03/08 06:47:14;;;;;;;14.40;8.10;;;;;;;-0.72;84.28;99253.18;109170;1277;23234;-61
2022/03/08 06:49:43;;;;;;;16.90;9.20;;;;;;;-0.75;85.54;99256.52;109111;1277;22559;-62
2022/03/08 06:52:12;;;;;;;18.40;9.80;;;;;;;-0.80;87.84;99251.31;108871;1278;138975;-62
2022/03/08 06:54:41;;;;;;;22.80;10.60;;;;;;;-0.86;88.79;99249.11;109107;1277;23743;-62
2022/03/08 06:57:09;;;;;;;25.80;11.90;;;;;;;-0.95;89.09;99241.09;108984;1277;139099;-62
2022/03/08 06:59:37;;;;;;;19.60;11.50;;;;;;;-0.91;89.44;99250.30;109114;1277;22455;-62
2022/03/08 07:02:05;;;;;;;24.20;10.80;;;;;;;-0.91;89.90;99246.02;109144;1277;22743;-62
2022/03/08 07:04:34;;;;;;;20.80;11.10;;;;;;;-0.90;89.70;99248.14;108938;1277;138100;-62
2022/03/08 07:07:02;;;;;;;26.20;11.00;;;;;;;-0.90;89.91;99243.65;109047;1277;23546;-63
2022/03/08 07:09:31;;;;;;;27.70;13.40;;;;;;;-0.88;89.48;99250.09;109020;1277;138497;-62
2022/03/08 07:12:00;;;;;;;23.60;10.70;;;;;;;-0.86;89.25;99248.66;109131;1277;22400;-62
2022/03/08 07:14:38;;;;;;;23.10;10.00;;;;;;;-0.87;88.82;99245.03;109095;1277;22445;-62
2022/03/08 07:17:07;;;;;;;22.80;10.80;;;;;;;-0.88;88.61;99248.00;108981;1277;137832;-62
2022/03/08 07:19:35;;;;;;;17.80;8.10;;;;;;;-0.88;88.47;99246.31;109174;1277;23254;-63
2022/03/08 07:22:03;;;;;;;15.70;8.00;;;;;;;-0.90;88.43;99246.83;108859;1278;137216;-62
2022/03/08 07:24:31;;;;;;;14.10;6.20;;;;;;;-0.92;88.23;99244.95;108985;1277;22473;-63
2022/03/08 07:27:00;;;;;;;10.80;5.70;;;;;;;-0.96;88.02;99242.84;109070;1277;137980;-62
2022/03/08 07:29:28;;;;;;;11.10;5.30;;;;;;;-0.96;87.62;99245.15;109108;1277;22577;-61
2022/03/08 07:31:57;;;;;;;7.60;4.90;;;;;;;-0.96;87.84;99242.67;109136;1277;22236;-62
2022/03/08 07:34:25;;;;;;;8.60;4.10;;;;;;;-0.94;87.89;99239.94;109092;1277;138379;-62
2022/03/08 07:36:54;;;;;;;6.50;4.60;;;;;;;-0.94;88.22;99239.54;109096;1277;23768;-62
2022/03/08 07:39:22;;;;;;;6.80;4.70;;;;;;;-0.93;88.24;99239.75;108889;1278;138587;-62
2022/03/08 07:41:51;;;;;;;7.60;4.10;;;;;;;-0.94;88.39;99238.55;109040;1277;22419;-62
2022/03/08 07:44:23;;;;;;;6.60;4.60;;;;;;;-0.96;88.33;99237.81;108972;1277;22461;-62
2022/03/08 07:46:52;;;;;;;7.30;5.20;;;;;;;-0.93;88.56;99242.34;109027;1277;138725;-61
2022/03/08 07:49:21;;;;;;;9.30;4.80;;;;;;;-0.89;88.64;99242.71;109151;1277;22619;-61
2022/03/08 07:51:49;;;;;;;7.30;4.70;;;;;;;-0.83;88.68;99239.09;109007;1277;138149;-62
2022/03/08 07:54:18;;;;;;;6.00;3.70;;;;;;;-0.78;88.47;99237.14;109113;1277;22543;-62
2022/03/08 07:56:46;;;;;;;2.80;2.20;;;;;;;-0.70;88.12;99241.73;109151;1276;22576;-62
2022/03/08 07:59:14;;;;;;;4.20;1.60;;;;;;;-0.65;87.70;99239.23;109050;1277;137587;-62
2022/03/08 08:01:43;;;;;;;2.40;1.60;;;;;;;-0.55;87.27;99239.27;109160;1277;22429;-62
2022/03/08 08:04:12;;;;;;;1.90;1.50;;;;;;;-0.47;86.54;99236.32;108860;1277;138174;-63
2022/03/08 08:06:40;;;;;;;2.00;1.50;;;;;;;-0.43;85.70;99235.33;109201;1277;24145;-62
2022/03/08 08:09:08;;;;;;;2.40;1.60;;;;;;;-0.33;85.35;99233.46;109059;1275;137319;-61
2022/03/08 08:11:36;;;;;;;4.10;1.90;;;;;;;-0.25;84.96;99234.66;109146;1277;22536;-61
2022/03/08 08:14:05;;;;;;;2.20;1.60;;;;;;;-0.17;84.49;99234.19;109210;1277;23304;-61
2022/03/08 08:16:33;;;;;;;4.50;1.90;;;;;;;-0.11;83.88;99232.86;108976;1277;137490;-62
2022/03/08 08:19:01;;;;;;;2.20;1.70;;;;;;;-0.05;83.42;99232.25;109151;1277;23258;-61
2022/03/08 08:21:35;;;;;;;3.60;2.00;;;;;;;0.02;83.05;99228.52;109013;1277;138022;-61
2022/03/08 08:24:04;;;;;;;4.60;2.20;;;;;;;0.08;82.70;99229.16;109162;1277;22276;-62
2022/03/08 08:26:33;;;;;;;5.20;2.60;;;;;;;0.14;82.10;99229.35;108988;1277;22409;-62
2022/03/08 08:29:01;;;;;;;3.90;2.20;;;;;;;0.13;82.00;99231.25;109011;1277;138010;-63
2022/03/08 08:31:31;;;;;;;4.40;2.40;;;;;;;0.12;81.87;99231.73;109165;1277;22535;-63
2022/03/08 08:33:59;;;;;;;4.10;2.30;;;;;;;0.12;82.05;99233.47;109048;1277;137488;-63
2022/03/08 08:36:27;;;;;;;2.20;1.70;;;;;;;0.08;82.37;99234.39;109113;1277;23593;-63
2022/03/08 08:38:55;;;;;;;2.70;1.90;;;;;;;0.05;82.63;99237.45;109086;1277;137886;-62
2022/03/08 08:41:25;;;;;;;1.90;1.50;;;;;;;-0.02;82.74;99238.53;109166;1277;22435;-63
2022/03/08 08:43:53;;;;;;;1.60;1.40;;;;;;;-0.10;82.67;99237.36;109150;1277;22538;-63
2022/03/08 08:46:21;;;;;;;2.90;2.00;;;;;;;-0.16;82.11;99232.10;108871;1277;137582;-63
2022/03/08 08:48:50;;;;;;;8.30;4.10;;;;;;;-0.23;82.11;99230.69;109173;1277;22571;-62
2022/03/08 08:51:19;;;;;;;3.70;2.50;;;;;;;-0.26;81.92;99234.95;108935;1277;137924;-63
2022/03/08 08:53:47;;;;;;;3.20;2.20;;;;;;;-0.24;81.71;99233.48;109145;1277;22513;-63
2022/03/08 08:56:15;;;;;;;2.70;2.30;;;;;;;-0.20;81.78;99237.42;109115;1277;22475;-62
2022/03/08 08:58:44;;;;;;;4.10;1.70;;;;;;;-0.14;81.86;99233.51;108984;1277;138176;-62
2022/03/08 09:01:12;;;;;;;1.50;1.40;;;;;;;-0.07;81.88;99244.52;109122;1277;22579;-62
2022/03/08 09:03:40;;;;;;;1.20;0.90;;;;;;;-0.03;84.18;99249.58;109051;1277;138781;-62
2022/03/08 09:06:08;;;;;;;3.20;2.00;;;;;;;-0.09;86.79;99253.15;109161;1277;25183;-62
2022/03/08 09:08:37;;;;;;;1.50;1.40;;;;;;;-0.22;87.12;99255.94;109141;1277;23472;-62
2022/03/08 09:11:25;;;;;;;;;;;;;;;-0.40;87.67;99249.88;109021;1277;139319;-62
2022/03/08 09:13:56;;;;;;;1.80;1.40;;;;;;;-0.52;88.13;99247.39;108997;1280;23233;-62
2022/03/08 09:16:25;;;;;;;4.10;1.60;;;;;;;-0.57;88.41;99250.90;106588;1278;138444;-62
2022/03/08 09:18:55;;;;;;;3.20;2.00;;;;;;;-0.61;87.91;99253.29;104643;1278;25340;-62
2022/03/08 09:21:23;;;;;;;3.60;2.10;;;;;;;-0.67;87.74;99253.98;108978;1277;137120;-62
2022/03/08 09:23:51;;;;;;;4.30;2.50;;;;;;;-0.69;87.20;99258.11;108963;1277;22560;-62
2022/03/08 09:26:21;;;;;;;4.90;2.80;;;;;;;-0.72;86.38;99256.61;109114;1277;22463;-62
2022/03/08 09:28:49;;;;;;;3.60;2.30;;;;;;;-0.75;85.84;99255.23;109061;1277;138435;-62
2022/03/08 09:31:18;;;;;;;3.30;2.40;;;;;;;-0.74;85.75;99254.14;109141;1277;22411;-62
2022/03/08 09:33:46;;;;;;;4.20;2.40;;;;;;;-0.69;85.35;99254.11;109050;1277;138219;-62
2022/03/08 09:36:14;;;;;;;4.10;2.40;;;;;;;-0.65;85.21;99253.71;109021;1277;22464;-62
2022/03/08 09:38:44;;;;;;;3.80;2.50;;;;;;;-0.59;84.84;99257.02;109157;1277;22454;-62
2022/03/08 09:41:14;;;;;;;3.50;2.20;;;;;;;-0.53;83.75;99253.27;109059;1277;137171;-62
2022/03/08 09:43:43;;;;;;;3.70;2.40;;;;;;;-0.49;82.95;99257.06;109140;1277;22643;-62
2022/03/08 09:46:11;;;;;;;4.90;2.80;;;;;;;-0.44;82.66;99250.46;109022;1277;137501;-62
2022/03/08 09:48:39;;;;;;;4.80;2.60;;;;;;;-0.36;82.25;99256.38;108892;1279;22470;-62
2022/03/08 09:51:07;;;;;;;2.80;2.00;;;;;;;-0.27;81.68;99251.55;109008;1277;137664;-62
2022/03/08 09:53:36;;;;;;;3.30;2.10;;;;;;;-0.18;80.84;99254.86;109185;1277;23397;-62
2022/03/08 09:56:04;;;;;;;3.90;2.20;;;;;;;-0.11;79.53;99248.73;108979;1277;22705;-62
2022/03/08 09:58:33;;;;;;;3.20;2.00;;;;;;;-0.04;79.00;99251.29;109053;1277;138800;-62
2022/03/08 10:01:01;;;;;;;3.40;2.00;;;;;;;0.04;77.71;99253.43;109206;1277;22416;-63
2022/03/08 10:03:43;;;;;;;3.00;1.90;;;;;;;0.12;76.44;99252.73;109028;1277;137551;-62
2022/03/08 10:06:12;;;;;;;3.80;2.10;;;;;;;0.19;75.47;99254.51;109110;1277;22468;-62
2022/03/08 10:08:42;;;;;;;4.00;2.00;;;;;;;0.27;74.35;99252.00;109169;1277;22564;-62
2022/03/08 10:11:14;;;;;;;6.70;2.10;;;;;;;0.36;73.42;99247.91;109026;1277;137153;-62
2022/03/08 10:13:59;;;;;;;5.50;2.80;;;;;;;0.45;73.41;99249.61;108763;1277;22511;-63
2022/03/08 10:16:42;;;;;;;3.30;1.90;;;;;;;0.53;72.57;99246.60;109035;1277;137151;-63
2022/03/08 10:19:11;;;;;;;8.20;3.50;;;;;;;0.56;71.23;99246.45;109140;1277;22444;-63
2022/03/08 10:21:42;;;;;;;5.00;2.60;;;;;;;0.57;70.10;99242.25;109030;1277;138206;-63
2022/03/08 10:24:18;;;;;;;7.50;2.20;;;;;;;0.55;68.72;99235.96;109110;1277;22560;-62
2022/03/08 10:26:54;;;;;;;7.10;2.90;;;;;;;0.56;67.06;99238.98;109175;1277;22248;-63
2022/03/08 10:29:32;;;;;;;4.40;2.40;;;;;;;0.59;66.55;99235.92;109003;1277;137155;-63
2022/03/08 10:32:06;;;;;;;5.60;2.90;;;;;;;0.61;66.47;99239.06;109173;1277;23316;-61
2022/03/08 10:34:35;;;;;;;1.90;1.30;;;;;;;0.64;66.59;99238.09;108913;1277;138164;-61
2022/03/08 10:37:09;;;;;;;1.80;1.30;;;;;;;0.68;65.74;99239.73;109140;1277;22429;-61
2022/03/08 10:40:10;;;;;;;1.90;1.40;;;;;;;0.70;64.38;99231.91;109064;1277;136936;-61
2022/03/08 10:42:43;;;;;;;2.40;1.50;;;;;;;0.73;63.75;99233.37;108522;1283;23111;-61
2022/03/08 10:45:15;;;;;;;1.40;1.20;;;;;;;0.73;64.15;99232.62;108468;1283;138267;-59
2022/03/08 10:47:44;;;;;;;1.40;1.20;;;;;;;0.72;62.90;99232.28;108587;1283;23451;-61
2022/03/08 10:50:14;;;;;;;1.00;0.90;;;;;;;0.72;62.30;99228.02;108595;1282;22468;-61
2022/03/08 10:52:44;;;;;;;1.30;1.10;;;;;;;0.72;62.44;99232.19;108413;1283;138197;-61
2022/03/08 10:55:12;;;;;;;1.50;1.10;;;;;;;0.74;61.83;99234.45;108601;1282;22325;-62
2022/03/08 10:57:42;;;;;;;1.50;1.00;;;;;;;0.76;61.05;99238.50;108435;1283;139280;-61
2022/03/08 11:00:18;;;;;;;1.60;1.00;;;;;;;0.75;61.45;99238.83;108504;1283;22517;-62
2022/03/08 11:02:51;;;;;;;2.00;1.10;;;;;;;0.76;62.29;99238.87;108595;1283;22493;-62
2022/03/08 11:05:20;;;;;;;2.00;1.20;;;;;;;0.78;62.32;99243.17;108420;1283;137535;-62
2022/03/08 11:07:49;;;;;;;1.50;1.10;;;;;;;0.80;62.30;99242.80;108565;1283;22571;-62
2022/03/08 11:10:18;;;;;;;11.10;5.50;;;;;;;0.82;62.72;99244.17;108438;1282;137113;-62
2022/03/08 11:12:49;;;;;;;32.40;14.80;;;;;;;0.83;62.22;99243.24;108882;1280;23771;-61
2022/03/08 11:15:18;;;;;;;12.60;6.00;;;;;;;0.80;62.27;99248.30;108780;1279;137889;-62
2022/03/08 11:17:47;;;;;;;17.30;8.50;;;;;;;0.75;62.24;99246.73;108929;1274;23494;-61
2022/03/08 11:20:36;;;;;;;15.00;7.40;;;;;;;0.71;63.24;99243.41;109439;1274;22512;-62
2022/03/08 11:23:05;;;;;;;5.60;2.60;;;;;;;0.76;63.66;99246.95;109289;1274;137356;-62
2022/03/08 11:25:41;;;;;;;22.90;9.90;;;;;;;0.80;62.63;99244.02;109370;1273;22472;-62